sensor_id;sensor_type;location;lat;lon;timestamp;pressure;altitude;pressure_sealevel;temperature;humidity
65054;BME280;51639;47.828;35.038;2023-04-25T00:09:53;99785.22;;;14.62;100.00
65054;BME280;51639;47.828;35.038;2023-04-25T00:24:55;99782.81;;;14.83;100.00
65054;BME280;51639;47.828;35.038;2023-04-25T00:39:58;99783.69;;;14.89;100.00
65054;BME280;51639;47.828;35.038;2023-04-25T00:55:00;99772.16;;;14.94;100.00
65054;BME280;51639;47.828;35.038;2023-04-25T01:10:03;99745.16;;;14.78;100.00
65054;BME280;51639;47.828;35.038;2023-04-25T01:25:07;99746.66;;;14.51;100.00
65054;BME280;51639;47.828;35.038;2023-04-25T01:40:10;99735.38;;;14.40;100.00
65054;BME280;51639;47.828;35.038;2023-04-25T01:55:12;99736.28;;;14.37;100.00
65054;BME280;51639;47.828;35.038;2023-04-25T02:10:14;99729.09;;;14.12;100.00
65054;BME280;51639;47.828;35.038;2023-04-25T02:25:18;99719.50;;;13.98;100.00
65054;BME280;51639;47.828;35.038;2023-04-25T02:40:21;99714.34;;;13.91;100.00
65054;BME280;51639;47.828;35.038;2023-04-25T02:55:23;99714.81;;;13.99;100.00
65054;BME280;51639;47.828;35.038;2023-04-25T03:10:28;99716.84;;;14.17;100.00
65054;BME280;51639;47.828;35.038;2023-04-25T03:25:30;99709.53;;;14.05;100.00
65054;BME280;51639;47.828;35.038;2023-04-25T03:40:33;99713.94;;;14.20;100.00
65054;BME280;51639;47.828;35.038;2023-04-25T03:55:35;99709.28;;;14.39;100.00
65054;BME280;51639;47.828;35.038;2023-04-25T04:10:36;99708.69;;;14.44;100.00
65054;BME280;51639;47.828;35.038;2023-04-25T04:25:39;99693.88;;;14.63;100.00
65054;BME280;51639;47.828;35.038;2023-04-25T04:40:41;99699.13;;;14.94;100.00
65054;BME280;51639;47.828;35.038;2023-04-25T04:55:46;99699.25;;;15.18;100.00
65054;BME280;51639;47.828;35.038;2023-04-25T05:10:49;99700.00;;;15.79;100.00
65054;BME280;51639;47.828;35.038;2023-04-25T05:25:51;99682.88;;;16.41;100.00
65054;BME280;51639;47.828;35.038;2023-04-25T05:40:53;99683.69;;;16.95;100.00
65054;BME280;51639;47.828;35.038;2023-04-25T05:55:55;99682.94;;;17.88;100.00
65054;BME280;51639;47.828;35.038;2023-04-25T06:10:57;99676.66;;;18.63;100.00
65054;BME280;51639;47.828;35.038;2023-04-25T06:25:59;99652.44;;;19.51;100.00
65054;BME280;51639;47.828;35.038;2023-04-25T06:41:01;99650.66;;;19.90;100.00
65054;BME280;51639;47.828;35.038;2023-04-25T06:56:04;99665.97;;;20.45;100.00
65054;BME280;51639;47.828;35.038;2023-04-25T07:11:06;99658.75;;;21.82;100.00
65054;BME280;51639;47.828;35.038;2023-04-25T07:26:08;99666.06;;;21.79;100.00
65054;BME280;51639;47.828;35.038;2023-04-25T07:41:10;99669.44;;;20.40;100.00
65054;BME280;51639;47.828;35.038;2023-04-25T07:56:12;99667.81;;;19.68;100.00
65054;BME280;51639;47.828;35.038;2023-04-25T08:11:13;99655.16;;;19.82;100.00
65054;BME280;51639;47.828;35.038;2023-04-25T08:26:17;99645.38;;;19.81;100.00
65054;BME280;51639;47.828;35.038;2023-04-25T08:41:19;99625.56;;;20.31;100.00
65054;BME280;51639;47.828;35.038;2023-04-25T08:56:22;99627.69;;;20.86;100.00
65054;BME280;51639;47.828;35.038;2023-04-25T09:11:25;99630.00;;;19.63;100.00
65054;BME280;51639;47.828;35.038;2023-04-25T09:26:27;99628.00;;;17.68;100.00
65054;BME280;51639;47.828;35.038;2023-04-25T09:41:29;99623.38;;;16.95;100.00
65054;BME280;51639;47.828;35.038;2023-04-25T09:56:35;99610.69;;;17.12;100.00
65054;BME280;51639;47.828;35.038;2023-04-25T10:11:39;99610.31;;;16.90;100.00
65054;BME280;51639;47.828;35.038;2023-04-25T10:26:42;99605.75;;;17.16;100.00
65054;BME280;51639;47.828;35.038;2023-04-25T10:41:52;99618.03;;;18.52;100.00
65054;BME280;51639;47.828;35.038;2023-04-25T10:56:54;99624.25;;;18.72;100.00
65054;BME280;51639;47.828;35.038;2023-04-25T11:11:57;99613.63;;;19.17;100.00
65054;BME280;51639;47.828;35.038;2023-04-25T11:27:01;99610.41;;;19.19;100.00
65054;BME280;51639;47.828;35.038;2023-04-25T11:42:08;99601.72;;;18.68;100.00
65054;BME280;51639;47.828;35.038;2023-04-25T11:57:14;99587.81;;;18.78;100.00
65054;BME280;51639;47.828;35.038;2023-04-25T12:12:16;99577.44;;;18.61;100.00
65054;BME280;51639;47.828;35.038;2023-04-25T12:27:18;99560.63;;;19.54;100.00
65054;BME280;51639;47.828;35.038;2023-04-25T12:42:21;99550.13;;;20.23;100.00
65054;BME280;51639;47.828;35.038;2023-04-25T12:57:23;99535.66;;;20.61;100.00
65054;BME280;51639;47.828;35.038;2023-04-25T13:12:25;99526.13;;;20.62;100.00
65054;BME280;51639;47.828;35.038;2023-04-25T13:27:27;99515.59;;;20.55;100.00
65054;BME280;51639;47.828;35.038;2023-04-25T13:42:29;99516.88;;;20.54;100.00
65054;BME280;51639;47.828;35.038;2023-04-25T13:57:31;99513.56;;;20.28;100.00
65054;BME280;51639;47.828;35.038;2023-04-25T14:12:39;99514.28;;;20.23;100.00
65054;BME280;51639;47.828;35.038;2023-04-25T14:27:42;99503.00;;;20.32;100.00
65054;BME280;51639;47.828;35.038;2023-04-25T14:42:44;99489.78;;;20.41;100.00
65054;BME280;51639;47.828;35.038;2023-04-25T14:57:46;99478.22;;;20.21;100.00
65054;BME280;51639;47.828;35.038;2023-04-25T15:12:49;99472.41;;;19.96;100.00
65054;BME280;51639;47.828;35.038;2023-04-25T15:27:51;99459.63;;;19.82;100.00
65054;BME280;51639;47.828;35.038;2023-04-25T15:42:55;99454.03;;;19.65;100.00
65054;BME280;51639;47.828;35.038;2023-04-25T15:57:56;99457.19;;;19.41;100.00
65054;BME280;51639;47.828;35.038;2023-04-25T16:12:58;99464.25;;;19.05;100.00
65054;BME280;51639;47.828;35.038;2023-04-25T16:28:00;99462.81;;;18.47;100.00
65054;BME280;51639;47.828;35.038;2023-04-25T16:43:02;99481.91;;;18.04;100.00
65054;BME280;51639;47.828;35.038;2023-04-25T16:58:04;99476.47;;;17.84;100.00
65054;BME280;51639;47.828;35.038;2023-04-25T17:13:10;99501.84;;;17.59;100.00
65054;BME280;51639;47.828;35.038;2023-04-25T17:28:13;99509.72;;;17.51;100.00
65054;BME280;51639;47.828;35.038;2023-04-25T17:43:15;99520.22;;;17.32;100.00
65054;BME280;51639;47.828;35.038;2023-04-25T17:58:20;99525.69;;;17.32;100.00
65054;BME280;51639;47.828;35.038;2023-04-25T18:13:22;99544.91;;;17.32;100.00
65054;BME280;51639;47.828;35.038;2023-04-25T18:28:25;99553.66;;;17.16;100.00
65054;BME280;51639;47.828;35.038;2023-04-25T18:43:27;99553.88;;;16.98;100.00
65054;BME280;51639;47.828;35.038;2023-04-25T18:58:29;99547.34;;;16.81;100.00
65054;BME280;51639;47.828;35.038;2023-04-25T19:13:31;99542.81;;;16.48;100.00
65054;BME280;51639;47.828;35.038;2023-04-25T19:28:33;99532.34;;;15.93;100.00
65054;BME280;51639;47.828;35.038;2023-04-25T19:43:35;99528.72;;;15.40;100.00
65054;BME280;51639;47.828;35.038;2023-04-25T19:58:37;99539.25;;;14.99;100.00
65054;BME280;51639;47.828;35.038;2023-04-25T20:13:39;99558.78;;;14.64;100.00
65054;BME280;51639;47.828;35.038;2023-04-25T20:28:41;99560.03;;;14.54;100.00
65054;BME280;51639;47.828;35.038;2023-04-25T20:43:43;99574.13;;;14.62;100.00
65054;BME280;51639;47.828;35.038;2023-04-25T20:58:46;99580.03;;;14.42;100.00
65054;BME280;51639;47.828;35.038;2023-04-25T21:13:48;99591.56;;;14.10;100.00
65054;BME280;51639;47.828;35.038;2023-04-25T21:28:50;99598.38;;;13.96;100.00
65054;BME280;51639;47.828;35.038;2023-04-25T21:43:52;99617.00;;;13.97;100.00
65054;BME280;51639;47.828;35.038;2023-04-25T21:58:54;99618.56;;;14.08;100.00
65054;BME280;51639;47.828;35.038;2023-04-25T22:13:56;99619.19;;;14.12;100.00
65054;BME280;51639;47.828;35.038;2023-04-25T22:28:58;99622.16;;;13.86;100.00
65054;BME280;51639;47.828;35.038;2023-04-25T22:44:00;99626.97;;;13.64;100.00
65054;BME280;51639;47.828;35.038;2023-04-25T22:59:02;99617.97;;;13.45;100.00
65054;BME280;51639;47.828;35.038;2023-04-25T23:14:05;99629.31;;;13.44;100.00
65054;BME280;51639;47.828;35.038;2023-04-25T23:29:07;99632.75;;;13.35;100.00
65054;BME280;51639;47.828;35.038;2023-04-25T23:44:09;99628.81;;;13.36;100.00
65054;BME280;51639;47.828;35.038;2023-04-25T23:59:11;99632.63;;;13.39;100.00
